createdAt,value
2019-06-26T00:00:40.287Z,64.90
2019-06-26T00:03:08.694Z,65.30
2019-06-26T00:05:37.104Z,65.30
2019-06-26T00:08:05.602Z,65.50
2019-06-26T00:10:34.016Z,65.50
2019-06-26T00:13:02.444Z,65.70
2019-06-26T00:15:30.879Z,65.90
2019-06-26T00:17:59.294Z,65.90
2019-06-26T00:20:27.709Z,66.10
2019-06-26T00:22:56.131Z,66.30
2019-06-26T00:25:24.559Z,66.70
2019-06-26T00:27:52.986Z,66.50
2019-06-26T00:30:21.412Z,66.60
2019-06-26T00:32:50.110Z,67.00
2019-06-26T00:35:18.530Z,66.90
2019-06-26T00:37:46.947Z,66.90
2019-06-26T00:40:15.788Z,67.00
2019-06-26T00:42:44.323Z,67.20
2019-06-26T00:45:13.479Z,67.10
2019-06-26T00:47:41.918Z,67.30
2019-06-26T00:50:11.338Z,67.30
2019-06-26T00:52:39.827Z,67.30
2019-06-26T00:55:08.314Z,67.40
2019-06-26T00:57:37.084Z,67.50
2019-06-26T01:00:10.642Z,67.80
2019-06-26T01:02:39.069Z,68.30
2019-06-26T01:05:12.111Z,68.20
2019-06-26T01:07:40.542Z,68.20
2019-06-26T01:10:11.064Z,68.60
2019-06-26T01:12:39.490Z,68.80
2019-06-26T01:15:08.447Z,68.60
2019-06-26T01:17:36.919Z,68.40
2019-06-26T01:20:07.184Z,68.60
2019-06-26T01:22:35.614Z,68.30
2019-06-26T01:25:05.175Z,68.50
2019-06-26T01:27:33.722Z,68.80
2019-06-26T01:30:02.466Z,68.90
2019-06-26T01:32:30.879Z,69.00
2019-06-26T01:34:59.311Z,69.30
2019-06-26T01:37:27.722Z,69.30
2019-06-26T01:39:56.148Z,69.30
2019-06-26T01:42:24.558Z,69.20
2019-06-26T01:44:52.992Z,69.20
2019-06-26T01:47:21.400Z,69.20
2019-06-26T01:49:49.842Z,69.20
2019-06-26T01:52:18.250Z,69.20
2019-06-26T01:54:46.690Z,69.30
2019-06-26T01:57:15.176Z,69.30
2019-06-26T01:59:43.623Z,69.40
2019-06-26T02:02:12.020Z,69.50
2019-06-26T02:04:40.446Z,69.50
2019-06-26T02:07:08.854Z,69.60
2019-06-26T02:09:37.287Z,69.80
2019-06-26T02:12:05.691Z,69.80
2019-06-26T02:14:34.174Z,69.80
2019-06-26T02:17:02.586Z,70.00
2019-06-26T02:19:31.008Z,70.00
2019-06-26T02:21:59.414Z,70.10
2019-06-26T02:24:27.869Z,70.60
2019-06-26T02:26:56.346Z,70.20
2019-06-26T02:29:24.763Z,70.40
2019-06-26T02:31:53.181Z,70.40
2019-06-26T02:34:21.629Z,70.50
2019-06-26T02:36:50.115Z,70.40
2019-06-26T02:39:18.530Z,70.50
2019-06-26T02:41:46.951Z,70.60
2019-06-26T02:44:15.368Z,70.50
2019-06-26T02:46:43.942Z,70.70
2019-06-26T02:49:12.347Z,70.80
2019-06-26T02:51:40.784Z,70.70
2019-06-26T02:54:09.239Z,71.10
2019-06-26T02:56:37.680Z,71.20
2019-06-26T02:59:06.164Z,71.20
2019-06-26T03:01:34.579Z,71.40
2019-06-26T03:04:03.000Z,71.60
2019-06-26T03:06:31.431Z,71.70
2019-06-26T03:08:59.857Z,71.60
2019-06-26T03:11:28.281Z,71.70
2019-06-26T03:13:56.721Z,71.60
2019-06-26T03:16:25.151Z,71.70
2019-06-26T03:18:53.566Z,71.60
2019-06-26T03:21:21.994Z,71.70
2019-06-26T03:23:50.409Z,71.60
2019-06-26T03:26:18.913Z,71.70
2019-06-26T03:28:47.318Z,71.70
2019-06-26T03:31:15.743Z,71.80
2019-06-26T03:33:44.151Z,71.70
2019-06-26T03:36:12.575Z,71.80
2019-06-26T03:38:40.995Z,72.10
2019-06-26T03:41:09.428Z,72.30
2019-06-26T03:43:37.862Z,72.50
2019-06-26T03:46:06.300Z,72.60
2019-06-26T03:48:34.722Z,72.80
2019-06-26T03:51:03.162Z,72.80
2019-06-26T03:53:31.575Z,72.80
2019-06-26T03:56:00.000Z,72.80
2019-06-26T03:58:28.493Z,72.80
2019-06-26T04:00:56.930Z,73.00
2019-06-26T04:03:25.342Z,73.80
2019-06-26T04:05:53.774Z,74.00
2019-06-26T04:08:22.196Z,74.00
2019-06-26T04:10:50.636Z,73.90
2019-06-26T04:13:19.126Z,74.10
2019-06-26T04:15:50.813Z,73.90
2019-06-26T04:18:17.706Z,73.80
2019-06-26T04:20:46.146Z,73.40
2019-06-26T04:23:14.570Z,73.30
2019-06-26T04:25:42.993Z,73.40
2019-06-26T04:28:11.419Z,73.70
2019-06-26T04:30:39.844Z,73.50
2019-06-26T04:33:08.298Z,73.40
2019-06-26T04:35:37.344Z,73.60
2019-06-26T04:38:05.922Z,73.60
2019-06-26T04:40:34.336Z,73.70
2019-06-26T04:43:02.826Z,73.70
2019-06-26T04:45:31.291Z,73.50
2019-06-26T04:47:59.714Z,73.30
2019-06-26T04:50:28.296Z,73.20
2019-06-26T04:52:56.711Z,73.10
2019-06-26T04:55:25.136Z,73.00
2019-06-26T04:57:53.564Z,73.30
2019-06-26T05:00:22.226Z,72.80
2019-06-26T05:02:50.652Z,72.90
2019-06-26T05:05:19.243Z,72.70
2019-06-26T05:07:47.702Z,72.50
2019-06-26T05:10:16.359Z,72.40
2019-06-26T05:12:44.791Z,72.50
2019-06-26T05:15:13.957Z,72.30
2019-06-26T05:17:42.386Z,72.30
2019-06-26T05:20:11.538Z,72.20
2019-06-26T05:22:39.980Z,72.00
2019-06-26T05:25:09.739Z,71.90
2019-06-26T05:27:38.170Z,71.70
2019-06-26T05:30:08.207Z,71.40
2019-06-26T05:32:36.706Z,71.30
2019-06-26T05:35:08.490Z,71.10
2019-06-26T05:37:36.922Z,71.00
2019-06-26T05:40:10.568Z,71.10
2019-06-26T05:42:39.073Z,71.20
2019-06-26T05:45:08.397Z,71.30
2019-06-26T05:47:36.845Z,71.20
2019-06-26T05:50:07.475Z,70.80
2019-06-26T05:52:35.871Z,70.00
2019-06-26T05:55:06.512Z,69.30
2019-06-26T05:57:35.004Z,68.50
2019-06-26T06:00:05.488Z,67.50
2019-06-26T06:02:33.954Z,66.30
2019-06-26T06:05:02.534Z,65.20
2019-06-26T06:07:30.953Z,64.20
2019-06-26T06:09:59.379Z,63.00
2019-06-26T06:12:27.826Z,62.60
2019-06-26T06:14:56.261Z,61.40
2019-06-26T06:17:24.690Z,59.60
2019-06-26T06:19:53.105Z,57.60
2019-06-26T06:22:21.531Z,57.20
2019-06-26T06:24:49.964Z,56.60
2019-06-26T06:27:18.527Z,56.30
2019-06-26T06:29:47.037Z,55.90
2019-06-26T06:32:15.457Z,55.20
2019-06-26T06:34:43.880Z,54.30
2019-06-26T06:37:12.294Z,53.80
2019-06-26T06:39:40.824Z,53.80
2019-06-26T06:42:09.248Z,53.30
2019-06-26T06:44:37.679Z,52.60
2019-06-26T06:47:08.931Z,52.50
2019-06-26T06:49:36.248Z,52.20
2019-06-26T06:52:04.722Z,52.00
2019-06-26T06:54:33.151Z,51.30
2019-06-26T06:57:01.642Z,51.00
2019-06-26T06:59:30.062Z,49.90
2019-06-26T07:01:58.562Z,49.30
2019-06-26T07:04:27.040Z,49.30
2019-06-26T07:06:58.649Z,48.70
2019-06-26T07:09:25.606Z,48.30
2019-06-26T07:11:54.027Z,47.70
2019-06-26T07:14:22.439Z,47.00
2019-06-26T07:16:50.904Z,47.30
2019-06-26T07:19:19.360Z,46.20
2019-06-26T07:21:47.789Z,45.90
2019-06-26T07:24:16.196Z,45.20
2019-06-26T07:26:44.635Z,43.20
2019-06-26T07:29:13.042Z,42.80
2019-06-26T07:31:41.535Z,42.60
2019-06-26T07:34:09.949Z,41.90
2019-06-26T07:36:38.382Z,40.50
2019-06-26T07:39:06.926Z,39.90
2019-06-26T07:41:35.624Z,39.90
2019-06-26T07:44:05.176Z,38.60
2019-06-26T07:46:33.610Z,38.80
2019-06-26T07:49:02.064Z,38.40
2019-06-26T07:51:30.504Z,38.20
2019-06-26T07:53:58.978Z,38.10
2019-06-26T07:56:27.407Z,37.60
2019-06-26T07:58:55.826Z,37.30
2019-06-26T08:01:24.243Z,36.90
2019-06-26T08:03:52.651Z,35.90
2019-06-26T08:06:21.159Z,35.40
2019-06-26T08:08:49.583Z,34.60
2019-06-26T08:11:18.070Z,34.30
2019-06-26T08:13:46.492Z,32.90
2019-06-26T08:16:14.920Z,32.80
2019-06-26T08:18:43.334Z,31.80
2019-06-26T08:21:13.024Z,32.20
2019-06-26T08:23:40.977Z,32.30
2019-06-26T08:26:09.407Z,30.10
2019-06-26T08:28:37.821Z,32.50
2019-06-26T08:31:06.271Z,32.70
2019-06-26T08:33:34.742Z,32.80
2019-06-26T08:36:03.151Z,32.40
2019-06-26T08:38:31.588Z,31.90
2019-06-26T08:41:00.006Z,31.70
2019-06-26T08:43:31.250Z,31.10
2019-06-26T08:45:58.568Z,31.30
2019-06-26T08:48:38.831Z,31.50
2019-06-26T08:50:57.211Z,31.00
2019-06-26T08:53:25.625Z,30.70
2019-06-26T08:55:54.059Z,30.40
2019-06-26T08:58:22.542Z,30.10
2019-06-26T09:00:50.957Z,30.10
2019-06-26T09:03:19.378Z,29.30
2019-06-26T09:05:50.495Z,29.30
2019-06-26T09:08:19.036Z,29.20
2019-06-26T09:10:47.622Z,29.20
2019-06-26T09:13:16.060Z,29.50
2019-06-26T09:15:44.529Z,29.50
2019-06-26T09:18:12.961Z,29.00
2019-06-26T09:20:41.625Z,29.30
2019-06-26T09:23:10.207Z,28.70
2019-06-26T09:25:38.626Z,28.90
2019-06-26T09:28:07.190Z,29.10
2019-06-26T09:30:35.595Z,28.80
2019-06-26T09:33:04.588Z,28.80
2019-06-26T09:35:33.003Z,28.40
2019-06-26T09:38:01.432Z,28.60
2019-06-26T09:40:32.051Z,28.40
2019-06-26T09:43:00.077Z,28.60
2019-06-26T09:45:28.483Z,28.20
2019-06-26T09:47:56.909Z,28.30
2019-06-26T09:50:25.328Z,27.90
2019-06-26T09:52:53.746Z,27.80
2019-06-26T09:55:22.167Z,27.40
2019-06-26T09:57:50.595Z,27.10
2019-06-26T10:00:21.414Z,27.40
2019-06-26T10:02:49.911Z,27.10
2019-06-26T10:05:18.389Z,27.00
2019-06-26T10:07:46.822Z,27.00
2019-06-26T10:10:15.679Z,27.30
2019-06-26T10:12:44.119Z,27.40
2019-06-26T10:15:13.300Z,27.00
2019-06-26T10:17:41.764Z,26.00
2019-06-26T10:20:11.619Z,26.30
2019-06-26T10:22:39.245Z,26.30
2019-06-26T10:25:11.293Z,26.00
2019-06-26T10:27:38.619Z,24.70
2019-06-26T10:30:08.030Z,25.10
2019-06-26T10:32:36.435Z,25.50
2019-06-26T10:35:06.299Z,24.70
2019-06-26T10:37:33.936Z,24.40
2019-06-26T10:40:02.375Z,23.40
2019-06-26T10:42:30.796Z,24.50
2019-06-26T10:44:59.235Z,24.40
2019-06-26T10:47:27.640Z,24.30
2019-06-26T10:49:56.069Z,24.30
2019-06-26T10:52:24.470Z,24.30
2019-06-26T10:54:52.900Z,24.80
2019-06-26T10:57:21.330Z,24.90
2019-06-26T10:59:49.807Z,25.00
2019-06-26T11:02:18.213Z,24.20
2019-06-26T11:04:46.650Z,24.00
2019-06-26T11:07:15.059Z,24.00
2019-06-26T11:09:43.483Z,23.80
2019-06-26T11:12:11.895Z,24.20
2019-06-26T11:14:40.322Z,23.90
2019-06-26T11:17:08.734Z,24.20
2019-06-26T11:19:43.789Z,23.30
2019-06-26T11:22:07.359Z,23.30
2019-06-26T11:24:35.821Z,23.40
2019-06-26T11:27:04.470Z,23.60
2019-06-26T11:29:32.890Z,23.90
2019-06-26T11:32:01.319Z,22.50
2019-06-26T11:34:29.735Z,22.20
2019-06-26T11:37:03.840Z,21.90
2019-06-26T11:39:28.303Z,21.80
2019-06-26T11:41:56.742Z,21.60
2019-06-26T11:44:25.292Z,21.90
2019-06-26T11:46:53.775Z,22.50
2019-06-26T11:49:22.171Z,23.10
2019-06-26T11:51:50.604Z,23.40
2019-06-26T11:54:19.097Z,23.10
2019-06-26T11:56:47.537Z,22.10
2019-06-26T11:59:16.011Z,22.00
2019-06-26T12:01:44.431Z,21.80
2019-06-26T12:04:12.854Z,21.50
2019-06-26T12:06:41.273Z,21.50
2019-06-26T12:09:09.772Z,21.70
2019-06-26T12:11:38.275Z,21.60
2019-06-26T12:14:06.743Z,21.70
2019-06-26T12:16:35.251Z,21.80
2019-06-26T12:19:03.729Z,21.50
2019-06-26T12:21:32.156Z,21.80
2019-06-26T12:24:00.575Z,21.80
2019-06-26T12:26:28.989Z,21.60
2019-06-26T12:28:57.404Z,21.30
2019-06-26T12:31:25.816Z,21.60
2019-06-26T12:33:54.234Z,21.50
2019-06-26T12:36:22.727Z,21.30
2019-06-26T12:38:51.154Z,21.50
2019-06-26T12:41:19.693Z,21.00
2019-06-26T12:43:48.221Z,21.00
2019-06-26T12:46:18.242Z,21.70
2019-06-26T12:48:46.938Z,21.50
2019-06-26T12:51:15.366Z,21.40
2019-06-26T12:53:43.915Z,21.20
2019-06-26T12:56:12.340Z,21.10
2019-06-26T12:58:40.812Z,21.60
2019-06-26T13:01:09.238Z,21.00
2019-06-26T13:03:37.652Z,21.00
2019-06-26T13:06:06.073Z,20.90
2019-06-26T13:08:34.557Z,20.80
2019-06-26T13:11:02.993Z,20.90
2019-06-26T13:13:31.396Z,20.90
2019-06-26T13:15:59.823Z,21.00
2019-06-26T13:18:28.239Z,20.70
2019-06-26T13:20:56.678Z,21.00
2019-06-26T13:23:25.153Z,20.70
2019-06-26T13:25:53.567Z,20.90
2019-06-26T13:28:22.074Z,21.00
2019-06-26T13:30:53.256Z,21.00
2019-06-26T13:33:20.625Z,21.10
2019-06-26T13:35:49.045Z,21.10
2019-06-26T13:38:17.483Z,20.80
2019-06-26T13:40:45.894Z,20.70
2019-06-26T13:43:14.322Z,20.80
2019-06-26T13:45:42.812Z,20.80
2019-06-26T13:48:11.239Z,21.10
2019-06-26T13:50:39.650Z,21.00
2019-06-26T13:53:08.075Z,21.10
2019-06-26T13:55:36.488Z,21.40
2019-06-26T13:58:04.979Z,21.60
2019-06-26T14:00:33.396Z,22.00
2019-06-26T14:03:01.842Z,21.70
2019-06-26T14:05:30.258Z,22.50
2019-06-26T14:07:58.699Z,22.10
2019-06-26T14:10:27.128Z,22.20
2019-06-26T14:12:55.553Z,22.50
2019-06-26T14:15:24.387Z,23.20
2019-06-26T14:17:52.910Z,23.30
2019-06-26T14:20:21.971Z,23.60
2019-06-26T14:22:50.485Z,23.70
2019-06-26T14:25:18.899Z,24.00
2019-06-26T14:27:47.327Z,24.10
2019-06-26T14:30:16.195Z,24.40
2019-06-26T14:32:44.737Z,24.10
2019-06-26T14:35:13.234Z,24.40
2019-06-26T14:37:41.675Z,25.10
2019-06-26T14:40:10.398Z,25.10
2019-06-26T14:42:38.810Z,25.30
2019-06-26T14:45:08.276Z,25.20
2019-06-26T14:47:36.694Z,25.90
2019-06-26T14:50:06.353Z,25.70
2019-06-26T14:52:35.208Z,26.10
2019-06-26T14:55:05.424Z,25.80
2019-06-26T14:57:33.831Z,25.90
2019-06-26T15:00:02.339Z,26.30
2019-06-26T15:02:31.863Z,26.40
2019-06-26T15:05:00.550Z,26.80
2019-06-26T15:07:28.964Z,26.60
2019-06-26T15:09:57.451Z,26.70
2019-06-26T15:12:25.930Z,26.90
2019-06-26T15:14:54.367Z,26.80
2019-06-26T15:17:22.801Z,27.00
2019-06-26T15:19:51.238Z,27.40
2019-06-26T15:22:19.661Z,26.80
2019-06-26T15:24:48.825Z,26.60
2019-06-26T15:27:17.241Z,26.70
2019-06-26T15:29:46.102Z,26.60
2019-06-26T15:32:14.537Z,26.70
2019-06-26T15:34:43.143Z,26.80
2019-06-26T15:37:11.547Z,27.20
2019-06-26T15:39:39.991Z,27.30
2019-06-26T15:42:08.398Z,27.30
2019-06-26T15:44:36.830Z,26.70
2019-06-26T15:47:05.318Z,26.90
2019-06-26T15:49:34.212Z,27.00
2019-06-26T15:52:14.535Z,26.70
2019-06-26T15:54:32.808Z,26.80
2019-06-26T15:57:01.233Z,26.60
2019-06-26T15:59:31.150Z,26.80
2019-06-26T16:01:59.739Z,26.90
2019-06-26T16:04:28.171Z,27.20
2019-06-26T16:06:56.592Z,27.00
2019-06-26T16:09:25.018Z,27.10
2019-06-26T16:11:53.426Z,27.50
2019-06-26T16:14:21.875Z,27.30
2019-06-26T16:16:51.952Z,27.80
2019-06-26T16:19:22.046Z,28.00
2019-06-26T16:21:50.482Z,28.80
2019-06-26T16:24:18.887Z,28.50
2019-06-26T16:26:47.599Z,28.90
2019-06-26T16:29:16.019Z,29.10
2019-06-26T16:31:44.443Z,29.00
2019-06-26T16:34:12.862Z,29.10
2019-06-26T16:36:41.295Z,29.20
2019-06-26T16:39:09.771Z,29.80
2019-06-26T16:41:38.201Z,30.00
2019-06-26T16:44:06.700Z,29.90
2019-06-26T16:46:35.258Z,30.00
2019-06-26T16:49:03.677Z,30.00
2019-06-26T16:51:32.105Z,30.70
2019-06-26T16:54:00.548Z,30.40
2019-06-26T16:56:28.967Z,30.50
2019-06-26T16:58:57.375Z,31.10
2019-06-26T17:01:25.815Z,31.20
2019-06-26T17:03:54.226Z,31.10
2019-06-26T17:06:22.658Z,30.50
2019-06-26T17:08:51.068Z,31.00
2019-06-26T17:11:19.570Z,31.20
2019-06-26T17:13:48.006Z,31.40
2019-06-26T17:16:16.481Z,31.40
2019-06-26T17:18:44.922Z,31.30
2019-06-26T17:21:13.352Z,31.40
2019-06-26T17:23:41.839Z,31.50
2019-06-26T17:26:10.251Z,31.50
2019-06-26T17:28:38.683Z,31.50
2019-06-26T17:31:07.114Z,31.30
2019-06-26T17:33:35.528Z,31.50
2019-06-26T17:36:03.964Z,31.80
2019-06-26T17:38:32.375Z,31.70
2019-06-26T17:41:00.871Z,32.00
2019-06-26T17:43:29.278Z,32.10
2019-06-26T17:45:57.707Z,32.10
2019-06-26T17:48:26.124Z,32.10
2019-06-26T17:50:54.543Z,32.30
2019-06-26T17:53:22.959Z,32.50
2019-06-26T17:55:51.389Z,32.50
2019-06-26T17:58:19.795Z,32.90
2019-06-26T18:00:48.239Z,33.30
2019-06-26T18:03:16.637Z,33.40
2019-06-26T18:05:45.160Z,33.30
2019-06-26T18:08:13.607Z,33.40
2019-06-26T18:10:42.046Z,33.80
2019-06-26T18:13:10.465Z,33.90
2019-06-26T18:15:38.887Z,34.00
2019-06-26T18:18:07.450Z,34.40
2019-06-26T18:20:35.866Z,34.10
2019-06-26T18:23:07.547Z,34.10
2019-06-26T18:25:34.576Z,34.40
2019-06-26T18:28:03.082Z,34.40
2019-06-26T18:30:31.503Z,34.40
2019-06-26T18:32:59.946Z,34.80
2019-06-26T18:35:28.370Z,35.10
2019-06-26T18:37:56.884Z,35.00
2019-06-26T18:40:25.379Z,35.10
2019-06-26T18:42:53.807Z,35.20
2019-06-26T18:45:22.294Z,35.90
2019-06-26T18:47:50.760Z,35.20
2019-06-26T18:50:19.215Z,35.40
2019-06-26T18:52:47.643Z,35.80
2019-06-26T18:55:16.219Z,36.10
2019-06-26T18:57:44.655Z,36.10
2019-06-26T19:00:13.702Z,36.40
2019-06-26T19:02:42.122Z,36.60
2019-06-26T19:05:10.879Z,36.80
2019-06-26T19:07:39.521Z,37.00
2019-06-26T19:10:09.423Z,37.40
2019-06-26T19:12:37.950Z,37.40
2019-06-26T19:15:07.365Z,38.40
2019-06-26T19:17:36.148Z,38.40
2019-06-26T19:20:06.818Z,38.50
2019-06-26T19:22:34.583Z,38.80
2019-06-26T19:25:03.408Z,37.10
2019-06-26T19:27:31.905Z,38.30
2019-06-26T19:30:00.426Z,38.90
2019-06-26T19:32:28.898Z,39.00
2019-06-26T19:34:57.401Z,39.30
2019-06-26T19:37:25.890Z,39.50
2019-06-26T19:39:54.298Z,40.00
2019-06-26T19:42:22.730Z,40.50
2019-06-26T19:44:51.237Z,40.80
2019-06-26T19:47:19.671Z,40.90
2019-06-26T19:49:48.086Z,41.30
2019-06-26T19:52:16.512Z,41.70
2019-06-26T19:54:44.934Z,42.10
2019-06-26T19:57:13.372Z,42.30
2019-06-26T19:59:41.852Z,42.60
2019-06-26T20:02:10.278Z,42.60
2019-06-26T20:04:38.691Z,42.90
2019-06-26T20:07:07.167Z,43.30
2019-06-26T20:09:35.595Z,43.70
2019-06-26T20:12:04.147Z,43.90
2019-06-26T20:14:32.591Z,44.30
2019-06-26T20:17:01.072Z,44.50
2019-06-26T20:19:29.491Z,44.80
2019-06-26T20:21:57.907Z,45.20
2019-06-26T20:24:39.635Z,45.50
2019-06-26T20:26:56.475Z,45.60
2019-06-26T20:29:24.905Z,45.70
2019-06-26T20:31:53.330Z,46.10
2019-06-26T20:34:21.755Z,46.40
2019-06-26T20:36:50.214Z,46.70
2019-06-26T20:39:18.646Z,47.10
2019-06-26T20:41:47.053Z,48.10
2019-06-26T20:44:15.477Z,47.60
2019-06-26T20:46:43.893Z,48.10
2019-06-26T20:49:12.321Z,48.50
2019-06-26T20:51:40.727Z,48.90
2019-06-26T20:54:09.167Z,49.00
2019-06-26T20:56:37.571Z,49.30
2019-06-26T20:59:06.011Z,49.40
2019-06-26T21:01:34.434Z,49.90
2019-06-26T21:04:02.876Z,49.80
2019-06-26T21:06:31.377Z,50.40
2019-06-26T21:08:59.968Z,50.60
2019-06-26T21:11:28.402Z,51.20
2019-06-26T21:13:56.843Z,51.40
2019-06-26T21:16:25.277Z,51.50
2019-06-26T21:18:53.683Z,51.50
2019-06-26T21:21:22.101Z,51.60
2019-06-26T21:23:50.540Z,52.00
2019-06-26T21:26:18.966Z,52.00
2019-06-26T21:28:47.388Z,52.10
2019-06-26T21:31:15.820Z,52.60
2019-06-26T21:33:44.278Z,52.50
2019-06-26T21:36:12.707Z,52.70
2019-06-26T21:38:41.126Z,52.90
2019-06-26T21:41:09.554Z,52.70
2019-06-26T21:43:37.986Z,53.50
2019-06-26T21:46:06.422Z,53.70
2019-06-26T21:48:34.852Z,53.90
2019-06-26T21:51:03.286Z,54.00
2019-06-26T21:53:31.694Z,54.10
2019-06-26T21:56:00.137Z,54.30
2019-06-26T21:58:28.544Z,54.50
2019-06-26T22:00:57.154Z,54.70
2019-06-26T22:03:26.403Z,55.00
2019-06-26T22:05:54.906Z,55.00
2019-06-26T22:08:23.391Z,55.60
2019-06-26T22:10:51.884Z,55.90
2019-06-26T22:13:20.296Z,56.00
2019-06-26T22:15:48.757Z,56.00
2019-06-26T22:18:17.183Z,56.00
2019-06-26T22:20:45.610Z,56.10
2019-06-26T22:23:14.202Z,56.60
2019-06-26T22:25:50.995Z,56.90
2019-06-26T22:28:13.224Z,57.00
2019-06-26T22:30:41.843Z,57.20
2019-06-26T22:33:10.421Z,57.40
2019-06-26T22:35:38.859Z,57.60
2019-06-26T22:38:07.285Z,57.70
2019-06-26T22:40:35.682Z,57.90
2019-06-26T22:43:04.111Z,58.00
2019-06-26T22:45:32.527Z,58.20
2019-06-26T22:48:00.963Z,58.20
2019-06-26T22:50:29.375Z,58.30
2019-06-26T22:52:57.808Z,58.70
2019-06-26T22:55:26.252Z,58.70
2019-06-26T22:57:54.685Z,58.80
2019-06-26T23:00:23.343Z,58.80
2019-06-26T23:02:51.779Z,59.00
2019-06-26T23:05:20.204Z,58.90
2019-06-26T23:07:48.650Z,59.50
2019-06-26T23:10:17.313Z,59.10
2019-06-26T23:12:45.735Z,59.00
2019-06-26T23:15:14.301Z,59.00
2019-06-26T23:17:42.728Z,59.30
2019-06-26T23:20:11.987Z,59.40
2019-06-26T23:22:40.441Z,58.90
2019-06-26T23:25:09.307Z,59.50
2019-06-26T23:27:37.738Z,59.90
2019-06-26T23:30:18.123Z,59.80
2019-06-26T23:32:46.678Z,59.60
2019-06-26T23:35:15.160Z,59.60
2019-06-26T23:37:43.740Z,59.70
2019-06-26T23:40:12.400Z,60.30
2019-06-26T23:42:40.824Z,60.60
2019-06-26T23:45:09.987Z,60.40
2019-06-26T23:47:38.424Z,60.40
2019-06-26T23:50:07.473Z,60.40
2019-06-26T23:52:35.899Z,61.00
2019-06-26T23:55:06.559Z,60.60
2019-06-26T23:57:35.135Z,60.70
